Decoded Metar for KACV (ARCATA/EUREKA in CA, USA) (IATA:ACV) | Meteo·Mobile Aviation Weather
aviador You're here:

KACV Decoded Metar

ARCATA/EUREKA in CA, USA
Report Time2019-02-17 07:26:00
UTC Time2019-02-17 07:33:38
Flight Rules mvfr MVFR
Wind010° at 05 kt
W.Decomp.*RWY 01: 4.8 kt HW 1.5 kt LCW
RWY 32: 4.2 kt HW 2.7 kt RCW
W.Rank010° ranks 31
Current wind is below 010° avg. (5.4)
Visibility9999 m
Phenomena:Light Rain
Clouds:Few 005 Hf
Overcast 014 Hf
Expected CloudBase > 400 ft AGL from Temp-Dew spread
Ceiling1,400 ft
Temp04°C (ISA -11)
Dew Point03°C (93% RH)
AAT0.7°C
QNH1018 hPa
Density Alt-1,125 ft
Elevation220 ft
Report Wrong Elevation
Raw Report
KACV 170726Z AUTO 01005KT 9SM -RA FEW005 OVC014 04/03 A3007 RMK
AO2 P0002 T00440033=

Extra information for KACV:More info

Metar Taf Metar & Taf Last 4 Metars F.Rules Stats Wind Profile Meteogram Temp Stats Airport Information Weather charts Add Link Nearby VenuesMetar ALERT Operation Metar Decoded Social comments

AIRNAV info for KACV